Time;durP1;ratioP1;P1;durP2;ratioP2;P2;SDS_P1;SDS_P2;PMS_P1;PMS_P2;Temp;Humidity;BMP_temperature;BMP_pressure;BME280_temperature;BME280_humidity;BME280_pressure;Samples;Min_cycle;Max_cycle;Signal;HPM_P1;HPM_P2
2023/08/21 00:00:48;;;;;;;0.55;0.55;;;;;;;24.09;100.00;100423.38;4990072;28;20046;-74
2023/08/21 00:03:13;;;;;;;0.60;0.60;;;;;;;24.57;100.00;100500.25;4991783;28;20042;-75
2023/08/21 00:05:39;;;;;;;2.25;2.05;;;;;;;24.58;100.00;100503.78;4989597;28;20041;-74
2023/08/21 00:08:04;;;;;;;1.08;0.77;;;;;;;25.18;100.00;100605.09;4989848;28;20034;-75
2023/08/21 00:10:30;;;;;;;0.82;0.82;;;;;;;25.16;100.00;100601.59;4983801;28;20068;-75
2023/08/21 00:12:56;;;;;;;1.75;1.33;;;;;;;25.03;100.00;100582.66;4989913;28;20073;-74
2023/08/21 00:15:21;;;;;;;2.60;2.00;;;;;;;24.40;100.00;100506.53;4989841;28;20096;-74
2023/08/21 00:17:47;;;;;;;2.83;1.48;;;;;;;24.91;100.00;100586.00;4989176;28;20048;-75
2023/08/21 00:20:13;;;;;;;0.38;0.30;;;;;;;25.05;100.00;100605.78;4990115;28;20037;-74
2023/08/21 00:22:38;;;;;;;1.63;1.17;;;;;;;24.47;100.00;100498.16;4984928;28;20129;-74
2023/08/21 00:25:04;;;;;;;0.65;0.52;;;;;;;25.08;100.00;100610.09;4989151;28;20057;-73
2023/08/21 00:27:30;;;;;;;1.75;1.10;;;;;;;24.49;100.00;100507.88;4989749;28;20046;-74
2023/08/21 00:29:55;;;;;;;1.77;1.27;;;;;;;25.01;100.00;100603.34;4987904;28;20062;-73
2023/08/21 00:32:21;;;;;;;1.50;1.25;;;;;;;24.83;100.00;100579.25;4990369;28;20018;-74
2023/08/21 00:34:46;;;;;;;1.48;1.30;;;;;;;24.85;100.00;100582.72;4990224;28;20615;-73
2023/08/21 00:37:12;;;;;;;2.22;1.48;;;;;;;24.36;100.00;100504.97;4988179;28;20070;-74
2023/08/21 00:39:37;;;;;;;2.05;1.48;;;;;;;24.93;100.00;100609.13;4988551;28;20105;-74
2023/08/21 00:42:03;;;;;;;1.55;1.45;;;;;;;24.31;100.00;100504.38;4989524;28;20082;-74
2023/08/21 00:44:28;;;;;;;1.08;1.02;;;;;;;24.88;100.00;100616.59;4989908;28;20176;-74
2023/08/21 00:46:54;;;;;;;0.70;0.70;;;;;;;24.81;100.00;100609.84;4988172;28;20046;-76
2023/08/21 00:49:21;;;;;;;1.48;1.08;;;;;;;24.83;100.00;100615.97;4985889;28;20034;-76
2023/08/21 00:51:48;;;;;;;1.20;1.13;;;;;;;24.62;100.00;100607.31;4980690;28;20363;-74
2023/08/21 00:54:14;;;;;;;1.30;1.20;;;;;;;24.23;100.00;100536.97;4988596;28;20038;-73
2023/08/21 00:56:39;;;;;;;1.77;1.67;;;;;;;24.57;100.00;100580.72;4988838;28;20133;-74
2023/08/21 00:59:05;;;;;;;1.10;1.00;;;;;;;24.76;100.00;100606.53;4988882;28;20042;-75
2023/08/21 01:01:32;;;;;;;1.08;0.77;;;;;;;24.32;100.00;100545.44;4987120;28;20133;-73
2023/08/21 01:03:58;;;;;;;0.47;0.47;;;;;;;24.08;100.00;100504.78;4987740;28;20034;-73
2023/08/21 01:06:24;;;;;;;1.73;1.63;;;;;;;24.70;100.00;100613.13;4985338;28;20042;-74
2023/08/21 01:09:17;;;;;;;1.73;1.40;;;;;;;24.66;100.00;100614.25;4988140;28;20037;-76
2023/08/21 01:12:07;;;;;;;2.03;1.85;;;;;;;24.70;100.00;100617.63;4988589;28;20114;-73
2023/08/21 01:15:00;;;;;;;2.03;1.45;;;;;;;24.68;100.00;100623.09;4988863;28;20037;-73
2023/08/21 01:17:28;;;;;;;1.50;1.25;;;;;;;24.18;100.00;100554.25;4988025;28;20526;-73
2023/08/21 01:19:55;;;;;;;2.85;1.95;;;;;;;24.58;100.00;100617.38;4977725;28;20038;-75
2023/08/21 01:22:24;;;;;;;2.88;2.60;;;;;;;24.17;100.00;100561.44;4988553;28;20088;-74
2023/08/21 01:24:50;;;;;;;0.65;0.65;;;;;;;23.92;100.00;100510.94;4987613;28;20129;-75
2023/08/21 01:27:16;;;;;;;3.33;2.88;;;;;;;24.38;100.00;100623.78;4988343;28;20497;-75
2023/08/21 01:29:42;;;;;;;1.05;1.02;;;;;;;24.38;100.00;100617.56;4988568;28;20030;-74
2023/08/21 01:32:27;;;;;;;0.57;0.57;;;;;;;24.47;100.00;100621.56;4987690;28;20086;-74
2023/08/21 01:34:55;;;;;;;1.58;1.48;;;;;;;24.20;100.00;100577.34;4987596;28;20375;-74
2023/08/21 01:37:22;;;;;;;0.70;0.68;;;;;;;24.19;100.00;100577.44;4988037;28;20042;-75
2023/08/21 01:39:48;;;;;;;2.33;1.60;;;;;;;24.29;100.00;100600.13;4987515;28;20828;-74
2023/08/21 01:42:13;;;;;;;3.75;1.80;;;;;;;24.30;100.00;100598.31;4988056;28;20074;-74
2023/08/21 01:44:39;;;;;;;2.13;1.52;;;;;;;24.48;100.00;100629.53;4987901;28;20589;-76
2023/08/21 01:47:05;;;;;;;2.60;1.73;;;;;;;24.25;100.00;100582.47;4986616;28;20038;-74
2023/08/21 01:49:30;;;;;;;1.15;1.08;;;;;;;24.34;100.00;100610.59;4986617;28;20137;-75
2023/08/21 01:51:56;;;;;;;1.75;1.63;;;;;;;24.36;100.00;100632.84;4987230;28;20494;-74
2023/08/21 01:54:21;;;;;;;1.10;1.00;;;;;;;24.26;100.00;100615.53;4986968;28;20054;-74
2023/08/21 01:56:47;;;;;;;1.27;1.02;;;;;;;23.97;100.00;100550.91;4987474;28;20030;-74
2023/08/21 01:59:12;;;;;;;1.23;1.05;;;;;;;24.26;100.00;100607.50;4987968;28;20034;-75
2023/08/21 02:01:38;;;;;;;0.95;0.95;;;;;;;23.81;100.00;100532.09;4983637;28;20050;-75
2023/08/21 02:04:04;;;;;;;2.40;1.25;;;;;;;23.89;100.00;100535.25;4986975;28;20045;-74
2023/08/21 02:06:30;;;;;;;1.60;1.50;;;;;;;24.47;100.00;100633.19;4987814;28;20701;-74
2023/08/21 02:08:55;;;;;;;1.10;1.02;;;;;;;24.46;100.00;100628.72;4986761;28;20390;-74
2023/08/21 02:11:21;;;;;;;1.00;0.93;;;;;;;23.86;100.00;100521.13;4984609;28;20480;-76
2023/08/21 02:13:46;;;;;;;2.60;1.50;;;;;;;24.48;100.00;100634.91;4987172;28;20042;-74
2023/08/21 02:16:12;;;;;;;1.38;1.27;;;;;;;24.42;100.00;100621.81;4982978;28;20054;-74
2023/08/21 02:18:37;;;;;;;1.70;1.55;;;;;;;23.89;100.00;100529.03;4986658;28;20041;-73
2023/08/21 02:21:03;;;;;;;1.05;0.95;;;;;;;24.46;100.00;100622.50;4986607;28;20042;-74
2023/08/21 02:23:31;;;;;;;1.98;1.80;;;;;;;23.90;100.00;100544.16;4987423;28;20442;-75
2023/08/21 02:25:56;;;;;;;1.33;0.95;;;;;;;24.40;100.00;100619.19;4986571;28;20038;-75
2023/08/21 02:28:22;;;;;;;3.50;1.55;;;;;;;23.97;100.00;100550.91;4985935;28;20038;-75
2023/08/21 02:30:47;;;;;;;1.40;1.20;;;;;;;24.38;100.00;100633.66;4984130;28;20500;-75
2023/08/21 02:33:13;;;;;;;1.67;1.58;;;;;;;23.88;100.00;100543.34;4986941;28;20034;-74
2023/08/21 02:35:39;;;;;;;2.78;1.23;;;;;;;24.24;100.00;100607.56;4987528;28;20034;-73
2023/08/21 02:38:04;;;;;;;1.40;1.08;;;;;;;24.16;100.00;100594.56;4986765;28;20038;-74
2023/08/21 02:40:30;;;;;;;2.15;1.73;;;;;;;24.19;100.00;100605.13;4986550;28;20070;-73
2023/08/21 02:42:55;;;;;;;1.17;1.08;;;;;;;24.31;100.00;100617.00;4985142;28;20057;-74
2023/08/21 02:45:21;;;;;;;16.60;2.38;;;;;;;24.20;100.00;100604.16;4985300;28;20034;-78
2023/08/21 02:47:46;;;;;;;1.23;1.13;;;;;;;24.26;100.00;100605.66;4986825;28;20026;-73
2023/08/21 02:50:12;;;;;;;2.38;1.25;;;;;;;24.09;100.00;100574.41;4985994;28;20132;-73
2023/08/21 02:52:38;;;;;;;4.82;2.35;;;;;;;23.77;100.00;100531.41;4986532;28;20695;-76
2023/08/21 02:55:04;;;;;;;1.23;1.13;;;;;;;24.23;100.00;100614.75;4986078;28;20190;-75
2023/08/21 02:57:29;;;;;;;4.07;2.30;;;;;;;23.92;100.00;100567.25;4982090;28;20417;-75
2023/08/21 02:59:55;;;;;;;1.42;1.23;;;;;;;24.23;100.00;100617.44;4986267;28;20035;-75
2023/08/21 03:02:21;;;;;;;1.52;0.90;;;;;;;23.77;100.00;100539.44;4987026;28;20065;-75
2023/08/21 03:04:47;;;;;;;1.63;1.02;;;;;;;23.70;100.00;100562.13;4986554;28;20733;-76
2023/08/21 03:07:14;;;;;;;1.52;1.42;;;;;;;23.67;100.00;100554.25;4985759;28;20109;-74
2023/08/21 03:09:40;;;;;;;3.30;1.75;;;;;;;23.85;100.00;100573.88;4981974;28;20401;-75
2023/08/21 03:12:06;;;;;;;0.93;0.85;;;;;;;24.03;100.00;100609.56;4981891;28;20046;-75
2023/08/21 03:14:32;;;;;;;1.52;1.17;;;;;;;23.45;100.00;100524.16;4986992;28;20038;-74
2023/08/21 03:16:58;;;;;;;1.17;1.08;;;;;;;23.91;100.00;100610.22;4986042;28;20108;-75
2023/08/21 03:19:23;;;;;;;1.05;0.70;;;;;;;23.44;100.00;100523.31;4984144;28;20064;-73
2023/08/21 03:21:49;;;;;;;2.92;1.20;;;;;;;23.50;100.00;100522.97;4982448;28;20038;-74
2023/08/21 03:24:14;;;;;;;1.95;1.80;;;;;;;23.83;100.00;100615.97;4986233;28;20051;-74
2023/08/21 03:26:40;;;;;;;3.13;2.88;;;;;;;23.52;100.00;100542.50;4984636;28;20033;-75
2023/08/21 03:29:05;;;;;;;2.83;2.05;;;;;;;24.00;100.00;100621.31;4986766;28;20023;-74
2023/08/21 03:31:31;;;;;;;1.73;1.63;;;;;;;23.98;100.00;100619.69;4986632;28;20042;-73
2023/08/21 03:33:57;;;;;;;0.98;0.95;;;;;;;23.50;100.00;100541.72;4986299;28;20042;-73
2023/08/21 03:36:30;;;;;;;2.20;1.75;;;;;;;23.32;100.00;100521.22;4986379;28;20615;-74
2023/08/21 03:38:57;;;;;;;0.40;0.40;;;;;;;23.50;100.00;100539.03;4983123;28;20490;-74
2023/08/21 03:41:23;;;;;;;2.78;2.13;;;;;;;23.85;100.00;100605.19;4985175;28;20072;-73
2023/08/21 03:43:48;;;;;;;1.15;1.05;;;;;;;23.52;100.00;100521.06;4985941;28;20038;-74
2023/08/21 03:46:13;;;;;;;1.20;1.08;;;;;;;23.98;100.00;100601.78;4986232;28;20042;-73
2023/08/21 03:48:39;;;;;;;1.80;0.90;;;;;;;24.08;100.00;100628.09;4986112;28;20137;-75
2023/08/21 03:51:04;;;;;;;1.92;1.48;;;;;;;23.69;100.00;100546.13;4978905;28;20054;-75
2023/08/21 03:53:30;;;;;;;1.80;1.67;;;;;;;23.53;100.00;100535.31;4986265;28;20035;-74
2023/08/21 03:55:55;;;;;;;0.82;0.57;;;;;;;24.08;100.00;100633.47;5016417;28;20469;-74
2023/08/21 03:58:21;;;;;;;1.98;1.85;;;;;;;24.06;100.00;100630.00;4986227;28;20046;-74
2023/08/21 04:00:46;;;;;;;1.33;0.80;;;;;;;23.95;100.00;100610.00;4985636;28;20038;-74
2023/08/21 04:03:12;;;;;;;1.52;1.42;;;;;;;23.62;100.00;100560.78;4984230;28;20054;-75
2023/08/21 04:05:37;;;;;;;1.33;1.23;;;;;;;24.14;100.00;100644.72;4984605;28;20041;-75
2023/08/21 04:08:03;;;;;;;1.08;0.98;;;;;;;23.42;100.00;100533.22;4982693;28;20922;-75
2023/08/21 04:10:28;;;;;;;1.35;1.15;;;;;;;23.65;100.00;100556.16;4982814;28;20054;-74
2023/08/21 04:12:55;;;;;;;1.20;1.05;;;;;;;24.20;100.00;100644.38;4985280;28;20053;-74
2023/08/21 04:15:20;;;;;;;1.55;1.25;;;;;;;24.09;100.00;100635.19;4985895;28;20038;-74
2023/08/21 04:17:45;;;;;;;3.38;1.50;;;;;;;23.63;100.00;100550.00;4985383;28;20048;-74
2023/08/21 04:20:12;;;;;;;1.88;1.17;;;;;;;24.27;100.00;100652.13;4981462;28;20038;-75
2023/08/21 04:22:37;;;;;;;6.97;1.20;;;;;;;24.15;100.00;100629.50;4987997;28;20050;-74
2023/08/21 04:25:03;;;;;;;0.52;0.52;;;;;;;23.80;100.00;100578.63;4988521;28;20043;-74
2023/08/21 04:27:28;;;;;;;2.45;2.25;;;;;;;24.21;100.00;100656.00;4988997;28;20058;-74
2023/08/21 04:29:54;;;;;;;1.15;0.77;;;;;;;24.17;100.00;100639.19;4988815;28;20729;-77
2023/08/21 04:32:19;;;;;;;2.35;1.90;;;;;;;24.17;100.00;100639.19;4989734;28;20503;-75
2023/08/21 04:34:45;;;;;;;3.45;2.80;;;;;;;24.15;100.00;100634.88;4985936;28;20059;-76
2023/08/21 04:37:10;;;;;;;1.77;1.65;;;;;;;24.16;100.00;100621.41;4984619;28;20050;-75
2023/08/21 04:39:36;;;;;;;11.90;3.25;;;;;;;24.50;100.00;100650.94;4988532;28;20133;-74
2023/08/21 04:42:02;;;;;;;2.95;1.80;;;;;;;24.05;100.00;100569.28;4989175;28;20038;-75
2023/08/21 04:44:27;;;;;;;2.10;2.00;;;;;;;24.05;100.00;100562.09;4989830;28;20122;-74
2023/08/21 04:46:53;;;;;;;1.15;1.02;;;;;;;24.67;100.00;100663.41;4988738;28;20042;-75
2023/08/21 04:49:18;;;;;;;1.90;1.80;;;;;;;24.25;100.00;100584.28;4985671;28;20074;-74
2023/08/21 04:51:44;;;;;;;1.17;0.70;;;;;;;24.75;100.00;100661.19;4987976;28;20530;-74
2023/08/21 04:54:09;;;;;;;2.13;1.75;;;;;;;24.22;100.00;100561.19;4988395;28;20851;-74
2023/08/21 04:56:34;;;;;;;3.60;2.15;;;;;;;24.80;100.00;100669.84;4988973;28;20130;-74
2023/08/21 04:59:00;;;;;;;1.65;1.55;;;;;;;24.91;100.00;100670.13;4987463;28;20135;-74
2023/08/21 05:01:26;;;;;;;1.55;1.35;;;;;;;25.02;100.00;100673.06;4988386;28;20049;-76
2023/08/21 05:03:51;;;;;;;0.60;0.60;;;;;;;24.49;100.00;100576.72;4983795;28;20109;-75
2023/08/21 05:06:17;;;;;;;2.55;2.30;;;;;;;24.53;100.00;100576.47;4988360;28;20133;-75
2023/08/21 05:08:42;;;;;;;3.60;1.73;;;;;;;25.15;100.00;100672.38;4988573;28;20580;-74
2023/08/21 05:11:08;;;;;;;1.13;1.02;;;;;;;25.20;100.00;100683.75;4986660;28;20042;-74
2023/08/21 05:13:33;;;;;;;0.70;0.70;;;;;;;25.23;100.00;100652.19;4988152;28;20061;-74
2023/08/21 05:15:59;;;;;;;0.77;0.60;;;;;;;25.32;100.00;100647.28;4988167;28;20479;-74
2023/08/21 05:18:25;;;;;;;0.38;0.38;;;;;;;25.54;100.00;100681.81;4986851;28;20050;-75
2023/08/21 05:20:54;;;;;;;0.22;0.22;;;;;;;25.72;100.00;100680.72;4986160;28;20209;-75
2023/08/21 05:23:19;;;;;;;3.20;2.55;;;;;;;25.23;100.00;100600.31;4988665;28;20026;-75
2023/08/21 05:25:46;;;;;;;0.22;0.22;;;;;;;25.92;100.00;100673.31;4987778;28;20053;-77
2023/08/21 05:28:12;;;;;;;3.00;2.38;;;;;;;26.29;100.00;100682.72;4988506;28;20050;-75
2023/08/21 05:30:38;;;;;;;4.90;2.45;;;;;;;27.30;100.00;100697.03;4985484;28;20061;-75
2023/08/21 05:33:04;;;;;;;1.08;0.98;;;;;;;26.92;92.03;100580.03;4982525;28;20070;-76
2023/08/21 05:35:33;;;;;;;0.98;0.73;;;;;;;27.93;84.45;100603.84;4988017;28;20060;-76
2023/08/21 05:37:59;;;;;;;3.75;2.72;;;;;;;29.01;82.05;100697.03;4984799;28;20124;-76
2023/08/21 05:40:24;;;;;;;2.90;2.67;;;;;;;29.07;77.56;100650.66;4984248;28;20577;-74
2023/08/21 05:42:50;;;;;;;1.83;1.70;;;;;;;29.70;72.92;100686.53;4984191;28;20081;-74
2023/08/21 05:45:15;;;;;;;1.38;1.27;;;;;;;29.68;71.49;100666.84;4983788;28;20866;-75
2023/08/21 05:47:41;;;;;;;0.63;0.63;;;;;;;30.18;67.46;100663.91;4981783;28;20030;-75
2023/08/21 05:50:06;;;;;;;0.43;0.40;;;;;;;30.08;66.88;100598.81;4982905;28;20037;-76
2023/08/21 05:52:32;;;;;;;1.63;1.50;;;;;;;30.33;65.12;100594.19;4985183;28;20181;-75
2023/08/21 05:54:58;;;;;;;1.60;1.17;;;;;;;30.54;65.60;100687.25;4987542;28;20145;-75
2023/08/21 05:57:24;;;;;;;0.52;0.52;;;;;;;30.70;61.76;100608.31;4985473;28;20529;-74
2023/08/21 05:59:49;;;;;;;0.77;0.77;;;;;;;29.92;64.01;100595.56;4983441;28;20030;-75
2023/08/21 06:02:15;;;;;;;1.45;1.35;;;;;;;31.17;60.17;100668.63;4979317;28;20038;-76
2023/08/21 06:04:42;;;;;;;1.30;1.23;;;;;;;30.67;61.94;100600.44;4981338;28;20034;-75
2023/08/21 06:07:08;;;;;;;5.30;1.90;;;;;;;31.18;57.52;100604.41;4983932;28;20034;-76
2023/08/21 06:09:36;;;;;;;0.80;0.80;;;;;;;31.14;58.38;100606.53;4983653;28;20041;-74
2023/08/21 06:12:05;;;;;;;1.50;1.40;;;;;;;31.45;58.33;100680.78;4985216;28;20050;-74
2023/08/21 06:14:31;;;;;;;1.52;0.85;;;;;;;31.57;55.82;100676.19;4978794;28;20584;-74
2023/08/21 06:17:02;;;;;;;0.93;0.60;;;;;;;30.45;57.17;100606.72;4982735;28;20046;-76
2023/08/21 06:19:28;;;;;;;0.60;0.57;;;;;;;30.90;55.86;100612.97;4986073;28;20038;-76
2023/08/21 06:21:57;;;;;;;1.48;1.35;;;;;;;30.37;56.80;100647.09;4985219;28;20050;-74
2023/08/21 06:24:23;;;;;;;0.68;0.60;;;;;;;30.65;58.53;100705.38;4986449;28;20038;-76
2023/08/21 06:26:49;;;;;;;2.55;2.20;;;;;;;30.98;56.63;100622.34;4986652;28;20032;-75
2023/08/21 06:29:14;;;;;;;0.50;0.50;;;;;;;31.44;54.78;100708.88;4978921;28;20403;-75
2023/08/21 06:31:40;;;;;;;9.70;2.05;;;;;;;30.57;56.02;100619.28;4986438;28;20580;-74
2023/08/21 06:34:05;;;;;;;1.75;1.23;;;;;;;31.00;56.27;100697.13;4986301;28;20046;-74
2023/08/21 06:36:31;;;;;;;2.58;1.45;;;;;;;30.88;55.05;100682.75;4986676;28;20042;-75
2023/08/21 06:38:56;;;;;;;1.02;0.90;;;;;;;30.84;54.87;100686.69;4986107;28;20546;-74
2023/08/21 06:41:22;;;;;;;0.75;0.73;;;;;;;30.43;55.76;100617.69;4987075;28;20061;-75
2023/08/21 06:43:47;;;;;;;2.08;1.42;;;;;;;30.13;56.16;100629.06;4980017;28;20096;-75
2023/08/21 06:46:14;;;;;;;0.45;0.45;;;;;;;30.67;57.04;100676.28;4986075;28;20108;-74
2023/08/21 06:48:43;;;;;;;1.20;1.10;;;;;;;30.96;54.79;100682.09;4986309;28;20050;-74
2023/08/21 06:51:10;;;;;;;21.20;2.42;;;;;;;30.82;54.91;100712.16;4979064;28;20050;-74
2023/08/21 06:53:35;;;;;;;2.35;1.65;;;;;;;30.63;55.08;100659.44;4986704;28;20030;-74
2023/08/21 06:56:01;;;;;;;0.75;0.70;;;;;;;30.18;53.71;100628.72;4982618;28;20101;-75
2023/08/21 06:58:27;;;;;;;0.95;0.90;;;;;;;30.09;54.36;100627.59;4986224;28;20113;-75
2023/08/21 07:00:58;;;;;;;0.57;0.52;;;;;;;30.26;53.33;100637.13;4981563;28;20110;-76
2023/08/21 07:03:23;;;;;;;2.22;1.23;;;;;;;30.25;52.62;100638.06;4984841;28;20054;-74
2023/08/21 07:05:56;;;;;;;4.63;2.42;;;;;;;30.34;53.04;100633.81;4986110;28;20041;-74
2023/08/21 07:08:23;;;;;;;0.68;0.68;;;;;;;30.70;53.63;100705.88;4985104;28;20449;-76
2023/08/21 07:10:49;;;;;;;2.05;1.85;;;;;;;30.42;52.40;100672.00;4981972;28;20091;-75
2023/08/21 07:13:14;;;;;;;0.82;0.73;;;;;;;30.56;52.45;100688.00;4986212;28;20410;-74
2023/08/21 07:15:40;;;;;;;1.10;0.93;;;;;;;30.57;52.47;100705.09;4986108;28;20038;-75
2023/08/21 07:18:05;;;;;;;0.43;0.43;;;;;;;30.55;51.98;100680.84;4986179;28;20046;-75
2023/08/21 07:20:31;;;;;;;0.60;0.60;;;;;;;30.71;51.40;100689.47;4985469;28;20100;-74
2023/08/21 07:22:56;;;;;;;1.02;0.73;;;;;;;30.76;51.55;100683.66;4985747;28;20077;-75
2023/08/21 07:25:22;;;;;;;1.23;0.77;;;;;;;30.56;50.27;100647.38;4985523;28;20046;-75
2023/08/21 07:27:47;;;;;;;1.15;1.05;;;;;;;30.67;49.95;100696.13;4985835;28;20085;-76
2023/08/21 07:30:13;;;;;;;1.63;1.38;;;;;;;30.91;50.44;100682.47;4985779;28;20077;-75
2023/08/21 07:32:38;;;;;;;0.30;0.30;;;;;;;31.04;49.83;100705.88;4986963;28;20548;-76
2023/08/21 07:35:04;;;;;;;0.40;0.30;;;;;;;31.24;49.28;100687.97;4985841;28;20425;-74
2023/08/21 07:37:30;;;;;;;1.63;1.52;;;;;;;31.32;48.78;100707.16;5016294;28;20354;-74
2023/08/21 07:39:57;;;;;;;2.47;1.13;;;;;;;30.73;48.57;100589.09;4980110;28;20065;-74
2023/08/21 07:42:23;;;;;;;0.38;0.38;;;;;;;30.99;48.34;100626.78;4985299;28;20050;-77
2023/08/21 07:44:48;;;;;;;0.47;0.47;;;;;;;31.06;49.29;100631.56;4985618;28;20092;-77
2023/08/21 07:47:16;;;;;;;0.45;0.45;;;;;;;31.46;47.68;100703.34;4985930;28;20116;-74
2023/08/21 07:49:41;;;;;;;1.38;1.27;;;;;;;30.81;47.68;100551.41;4982407;28;21055;-75
2023/08/21 07:52:07;;;;;;;0.85;0.68;;;;;;;31.13;47.43;100600.22;4979215;28;20134;-74
2023/08/21 07:54:32;;;;;;;0.28;0.28;;;;;;;31.23;48.41;100627.44;4985182;28;20214;-76
2023/08/21 07:56:58;;;;;;;1.40;1.17;;;;;;;31.33;47.71;100614.84;4988128;28;20041;-76
2023/08/21 07:59:23;;;;;;;0.98;0.90;;;;;;;31.38;47.16;100610.88;4990188;28;20026;-74
2023/08/21 08:01:49;;;;;;;0.90;0.73;;;;;;;31.45;47.47;100629.25;4989387;28;20783;-74
2023/08/21 08:04:15;;;;;;;2.50;0.93;;;;;;;31.66;47.86;100677.28;4987801;28;20121;-74
2023/08/21 08:06:41;;;;;;;1.58;1.05;;;;;;;31.85;48.59;100693.69;4978420;28;20229;-74
2023/08/21 08:09:07;;;;;;;1.13;1.02;;;;;;;31.34;47.37;100611.13;4989227;28;20649;-75
2023/08/21 08:11:33;;;;;;;3.45;1.00;;;;;;;31.42;47.40;100634.94;4987621;28;20045;-75
2023/08/21 08:13:58;;;;;;;1.05;0.85;;;;;;;31.51;47.56;100622.44;4986253;28;20070;-75
2023/08/21 08:16:24;;;;;;;0.88;0.85;;;;;;;31.49;46.76;100625.31;4989315;28;20053;-76
2023/08/21 08:18:49;;;;;;;1.13;0.88;;;;;;;31.63;46.77;100623.25;4989178;28;20038;-76
2023/08/21 08:21:15;;;;;;;1.10;1.00;;;;;;;31.71;46.76;100623.47;4981741;28;20043;-76
2023/08/21 08:23:40;;;;;;;0.68;0.68;;;;;;;31.69;46.82;100618.16;4985415;28;20102;-74
2023/08/21 08:26:07;;;;;;;1.80;1.63;;;;;;;31.74;46.78;100602.34;4988944;28;20038;-74
2023/08/21 08:28:32;;;;;;;0.25;0.25;;;;;;;32.23;46.86;100705.88;4989079;28;20038;-74
2023/08/21 08:30:58;;;;;;;0.55;0.47;;;;;;;32.10;46.84;100692.50;4988890;28;20054;-75
2023/08/21 08:33:23;;;;;;;1.67;1.48;;;;;;;32.17;47.28;100690.97;4987461;28;20145;-75
2023/08/21 08:35:49;;;;;;;1.23;1.13;;;;;;;32.33;46.73;100673.31;4980065;28;20114;-75
2023/08/21 08:38:14;;;;;;;0.65;0.63;;;;;;;31.97;46.58;100618.53;4989268;28;20034;-76
2023/08/21 08:40:45;;;;;;;1.42;1.17;;;;;;;32.32;47.28;100669.75;4985990;28;20047;-74
2023/08/21 08:43:14;;;;;;;0.57;0.57;;;;;;;32.09;47.36;100600.31;4985459;28;20148;-74
2023/08/21 08:45:41;;;;;;;2.67;2.42;;;;;;;32.24;46.75;100668.69;4987701;28;20050;-75
2023/08/21 08:48:07;;;;;;;1.17;1.08;;;;;;;32.48;46.04;100679.28;4987512;28;20066;-75
2023/08/21 08:50:34;;;;;;;0.75;0.70;;;;;;;32.48;46.42;100666.56;4980890;28;20038;-76
2023/08/21 08:53:01;;;;;;;0.85;0.82;;;;;;;32.67;46.68;100681.25;4988522;28;20058;-75
2023/08/21 08:55:26;;;;;;;1.15;1.05;;;;;;;32.51;46.81;100633.69;4988062;28;20065;-75
2023/08/21 08:57:53;;;;;;;0.82;0.82;;;;;;;32.31;46.11;100594.72;4987493;28;20042;-75
2023/08/21 09:00:22;;;;;;;2.55;1.70;;;;;;;32.48;45.97;100647.53;4984689;28;20108;-76
2023/08/21 09:02:48;;;;;;;1.20;1.15;;;;;;;32.76;45.60;100635.09;4983387;28;20034;-75
2023/08/21 09:05:13;;;;;;;0.98;0.55;;;;;;;33.03;45.37;100643.59;4982114;28;20125;-73
2023/08/21 09:07:39;;;;;;;0.65;0.45;;;;;;;32.97;44.74;100653.19;4985396;28;20133;-77
2023/08/21 09:10:13;;;;;;;1.50;1.38;;;;;;;32.48;44.45;100567.88;4976245;28;20067;-74
2023/08/21 09:12:38;;;;;;;1.42;1.30;;;;;;;32.95;44.66;100657.91;4973081;28;20521;-74
2023/08/21 09:15:08;;;;;;;1.10;1.00;;;;;;;33.06;44.55;100627.91;4970187;28;20035;-75
2023/08/21 09:17:34;;;;;;;0.57;0.57;;;;;;;33.10;44.89;100576.78;4984021;28;20041;-74
2023/08/21 09:20:07;;;;;;;2.00;1.58;;;;;;;33.42;44.37;100644.53;4978123;28;20039;-75
2023/08/21 09:22:32;;;;;;;1.05;0.95;;;;;;;32.79;43.92;100572.28;4972719;28;20105;-74
2023/08/21 09:25:10;;;;;;;1.30;1.20;;;;;;;32.70;43.54;100555.97;4973234;28;20073;-76
2023/08/21 09:27:39;;;;;;;1.95;1.77;;;;;;;33.58;43.32;100644.88;4974283;28;20047;-77
2023/08/21 09:30:05;;;;;;;0.93;0.90;;;;;;;33.85;42.76;100627.78;4977026;28;20045;-75
2023/08/21 09:32:30;;;;;;;1.50;1.05;;;;;;;34.11;42.58;100637.22;4970790;28;20038;-77
2023/08/21 09:34:56;;;;;;;1.48;1.38;;;;;;;33.63;41.84;100568.22;4975785;28;20042;-75
2023/08/21 09:37:29;;;;;;;0.38;0.38;;;;;;;34.12;41.63;100607.13;4971022;28;20047;-76
2023/08/21 09:40:00;;;;;;;1.63;1.38;;;;;;;34.58;41.71;100607.22;4976700;28;20054;-76
2023/08/21 09:42:26;;;;;;;1.35;1.08;;;;;;;34.93;40.72;100625.56;4975375;28;20058;-76
2023/08/21 09:44:52;;;;;;;1.50;1.20;;;;;;;34.21;40.68;100518.22;4976245;28;20026;-77
2023/08/21 09:47:20;;;;;;;0.40;0.40;;;;;;;34.55;39.86;100605.66;4979069;28;20034;-76
2023/08/21 09:49:45;;;;;;;1.67;0.73;;;;;;;34.62;39.72;100622.28;4970677;28;20038;-80
2023/08/21 09:52:11;;;;;;;1.08;1.05;;;;;;;34.80;38.82;100592.38;4978503;28;20051;-77
2023/08/21 09:54:42;;;;;;;1.10;1.05;;;;;;;35.63;39.93;100606.69;4977592;28;20055;-75
2023/08/21 09:57:08;;;;;;;0.65;0.65;;;;;;;35.66;39.39;100529.94;4977997;28;20521;-75
2023/08/21 09:59:33;;;;;;;0.70;0.70;;;;;;;36.28;38.22;100572.66;4987021;28;20026;-74
2023/08/21 10:02:04;;;;;;;1.33;1.15;;;;;;;36.49;37.60;100575.81;4991080;28;20041;-77
2023/08/21 10:04:34;;;;;;;1.02;0.93;;;;;;;36.02;37.79;100603.56;4984487;28;20061;-75
2023/08/21 10:07:03;;;;;;;1.38;1.27;;;;;;;35.40;38.40;100512.63;4987097;28;20039;-76
2023/08/21 10:09:29;;;;;;;1.02;0.93;;;;;;;34.56;38.80;100520.16;4981494;28;20065;-75
2023/08/21 10:11:55;;;;;;;0.40;0.40;;;;;;;35.56;38.86;100594.66;4984818;28;20038;-76
2023/08/21 10:14:24;;;;;;;0.52;0.52;;;;;;;36.16;38.16;100517.44;4982591;28;20030;-77
2023/08/21 10:16:52;;;;;;;2.05;1.63;;;;;;;36.76;37.90;100577.50;4986344;28;20045;-77
2023/08/21 10:19:18;;;;;;;0.50;0.50;;;;;;;35.28;37.57;100503.84;4985260;28;20054;-76
2023/08/21 10:21:47;;;;;;;1.02;0.68;;;;;;;36.28;37.57;100526.19;4983139;28;20165;-77
2023/08/21 10:24:27;;;;;;;1.15;1.13;;;;;;;36.09;36.98;100521.81;4986383;28;20058;-77
2023/08/21 10:26:52;;;;;;;0.60;0.60;;;;;;;37.47;36.33;100561.53;4986652;28;20515;-78
2023/08/21 10:29:18;;;;;;;0.75;0.75;;;;;;;37.39;35.67;100565.13;4982761;28;20046;-77
2023/08/21 10:31:44;;;;;;;0.95;0.82;;;;;;;37.23;35.77;100551.44;4986393;28;20050;-78
2023/08/21 10:34:11;;;;;;;0.60;0.50;;;;;;;36.19;36.60;100503.44;4986731;28;20105;-73
2023/08/21 10:36:40;;;;;;;1.48;1.10;;;;;;;37.14;36.53;100534.16;4980515;28;20831;-76
2023/08/21 10:39:16;;;;;;;0.75;0.70;;;;;;;36.59;36.59;100570.25;4977785;28;20149;-75
2023/08/21 10:42:13;;;;;;;0.70;0.60;;;;;;;36.70;35.65;100492.53;4976435;28;20134;-79
2023/08/21 10:44:55;;;;;;;1.20;1.13;;;;;;;37.44;36.14;100552.78;4995159;28;20030;-77
2023/08/21 10:47:27;;;;;;;2.20;1.35;;;;;;;38.32;35.09;100558.31;4980945;28;20030;-76
2023/08/21 10:50:01;;;;;;;1.33;1.23;;;;;;;38.35;34.67;100554.34;5014055;28;20066;-78
2023/08/21 10:52:29;;;;;;;0.77;0.68;;;;;;;37.02;35.43;100504.50;4986862;28;20048;-75
2023/08/21 10:54:57;;;;;;;1.85;1.30;;;;;;;37.62;34.82;100475.97;4985398;28;20054;-76
2023/08/21 10:57:23;;;;;;;0.30;0.30;;;;;;;37.74;35.52;100535.66;4985838;28;20061;-75
2023/08/21 11:00:04;;;;;;;0.57;0.45;;;;;;;38.18;35.27;100559.91;4985087;28;20030;-75
2023/08/21 11:02:32;;;;;;;1.13;0.77;;;;;;;38.54;35.00;100532.03;4984454;28;20057;-75
2023/08/21 11:04:59;;;;;;;0.40;0.35;;;;;;;37.95;34.76;100548.81;4979116;28;20415;-76
2023/08/21 11:07:26;;;;;;;1.30;1.20;;;;;;;37.39;34.17;100461.09;4983967;28;20046;-80
2023/08/21 11:09:52;;;;;;;0.95;0.95;;;;;;;37.59;35.42;100530.06;4980951;28;20096;-75
2023/08/21 11:12:20;;;;;;;1.42;1.33;;;;;;;38.77;34.29;100539.44;4984531;28;20042;-77
2023/08/21 11:14:45;;;;;;;0.68;0.68;;;;;;;38.76;34.02;100475.47;5014340;28;20109;-76
2023/08/21 11:17:12;;;;;;;0.75;0.75;;;;;;;38.11;34.05;100533.38;4986967;28;20473;-76
2023/08/21 11:19:39;;;;;;;0.52;0.52;;;;;;;38.18;33.87;100474.94;4985612;28;20046;-77